sensor_id;sensor_type;location;lat;lon;timestamp;P1;durP1;ratioP1;P2;durP2;ratioP2
47737;SDS011;33502;47.182;27.506;2023-03-03T00:01:29;74.57;;;33.47;;
47737;SDS011;33502;47.182;27.506;2023-03-03T00:03:57;71.88;;;34.78;;
47737;SDS011;33502;47.182;27.506;2023-03-03T00:06:23;80.35;;;37.53;;
47737;SDS011;33502;47.182;27.506;2023-03-03T00:08:51;73.03;;;33.72;;
47737;SDS011;33502;47.182;27.506;2023-03-03T00:11:17;67.68;;;30.70;;
47737;SDS011;33502;47.182;27.506;2023-03-03T00:13:44;64.80;;;30.08;;
47737;SDS011;33502;47.182;27.506;2023-03-03T00:18:45;58.15;;;28.55;;
47737;SDS011;33502;47.182;27.506;2023-03-03T00:21:29;67.57;;;31.67;;
47737;SDS011;33502;47.182;27.506;2023-03-03T00:24:10;61.85;;;27.60;;
47737;SDS011;33502;47.182;27.506;2023-03-03T00:27:01;52.78;;;27.55;;
47737;SDS011;33502;47.182;27.506;2023-03-03T00:29:48;53.97;;;26.95;;
47737;SDS011;33502;47.182;27.506;2023-03-03T00:35:23;55.97;;;26.08;;
47737;SDS011;33502;47.182;27.506;2023-03-03T00:37:55;55.87;;;27.73;;
47737;SDS011;33502;47.182;27.506;2023-03-03T00:40:24;52.38;;;25.88;;
47737;SDS011;33502;47.182;27.506;2023-03-03T00:43:23;45.75;;;22.67;;
47737;SDS011;33502;47.182;27.506;2023-03-03T00:46:00;52.38;;;24.48;;
47737;SDS011;33502;47.182;27.506;2023-03-03T00:53:36;50.88;;;25.42;;
47737;SDS011;33502;47.182;27.506;2023-03-03T00:56:02;55.75;;;25.67;;
47737;SDS011;33502;47.182;27.506;2023-03-03T00:58:27;58.22;;;26.58;;
47737;SDS011;33502;47.182;27.506;2023-03-03T01:00:54;51.83;;;24.60;;
47737;SDS011;33502;47.182;27.506;2023-03-03T01:03:31;52.70;;;26.05;;
47737;SDS011;33502;47.182;27.506;2023-03-03T01:05:57;56.55;;;24.23;;
47737;SDS011;33502;47.182;27.506;2023-03-03T01:08:23;71.82;;;29.40;;
47737;SDS011;33502;47.182;27.506;2023-03-03T01:10:54;66.05;;;32.53;;
47737;SDS011;33502;47.182;27.506;2023-03-03T01:13:22;70.70;;;33.47;;
47737;SDS011;33502;47.182;27.506;2023-03-03T01:15:51;71.15;;;32.15;;
47737;SDS011;33502;47.182;27.506;2023-03-03T01:18:18;64.88;;;30.85;;
47737;SDS011;33502;47.182;27.506;2023-03-03T01:20:44;78.82;;;33.28;;
47737;SDS011;33502;47.182;27.506;2023-03-03T01:23:10;68.47;;;33.90;;
47737;SDS011;33502;47.182;27.506;2023-03-03T01:25:36;71.85;;;32.33;;
47737;SDS011;33502;47.182;27.506;2023-03-03T01:28:03;70.15;;;31.95;;
47737;SDS011;33502;47.182;27.506;2023-03-03T01:30:30;61.95;;;29.45;;
47737;SDS011;33502;47.182;27.506;2023-03-03T01:32:57;67.05;;;30.23;;
47737;SDS011;33502;47.182;27.506;2023-03-03T01:35:23;58.55;;;29.13;;
47737;SDS011;33502;47.182;27.506;2023-03-03T01:37:49;66.07;;;30.98;;
47737;SDS011;33502;47.182;27.506;2023-03-03T01:40:16;68.25;;;29.25;;
47737;SDS011;33502;47.182;27.506;2023-03-03T01:42:44;69.90;;;32.38;;
47737;SDS011;33502;47.182;27.506;2023-03-03T01:45:20;73.65;;;33.20;;
47737;SDS011;33502;47.182;27.506;2023-03-03T01:50:37;61.35;;;32.72;;
47737;SDS011;33502;47.182;27.506;2023-03-03T01:53:21;67.88;;;32.33;;
47737;SDS011;33502;47.182;27.506;2023-03-03T01:55:52;72.22;;;35.83;;
47737;SDS011;33502;47.182;27.506;2023-03-03T02:03:20;70.45;;;33.67;;
47737;SDS011;33502;47.182;27.506;2023-03-03T02:05:48;79.80;;;33.40;;
47737;SDS011;33502;47.182;27.506;2023-03-03T02:08:18;74.07;;;35.53;;
47737;SDS011;33502;47.182;27.506;2023-03-03T02:10:50;75.50;;;35.03;;
47737;SDS011;33502;47.182;27.506;2023-03-03T02:13:17;72.38;;;34.15;;
47737;SDS011;33502;47.182;27.506;2023-03-03T02:15:43;64.28;;;30.95;;
47737;SDS011;33502;47.182;27.506;2023-03-03T02:18:13;78.13;;;34.70;;
47737;SDS011;33502;47.182;27.506;2023-03-03T02:26:21;70.47;;;33.47;;
47737;SDS011;33502;47.182;27.506;2023-03-03T02:28:54;72.47;;;34.25;;
47737;SDS011;33502;47.182;27.506;2023-03-03T02:31:21;75.35;;;32.90;;
47737;SDS011;33502;47.182;27.506;2023-03-03T02:33:50;80.18;;;33.63;;
47737;SDS011;33502;47.182;27.506;2023-03-03T02:36:30;72.28;;;34.38;;
47737;SDS011;33502;47.182;27.506;2023-03-03T02:39:06;70.45;;;34.55;;
47737;SDS011;33502;47.182;27.506;2023-03-03T02:44:18;79.95;;;36.80;;
47737;SDS011;33502;47.182;27.506;2023-03-03T02:46:47;68.15;;;34.33;;
47737;SDS011;33502;47.182;27.506;2023-03-03T02:49:17;71.20;;;34.95;;
47737;SDS011;33502;47.182;27.506;2023-03-03T02:51:44;80.25;;;34.72;;
47737;SDS011;33502;47.182;27.506;2023-03-03T02:54:11;77.32;;;34.75;;
47737;SDS011;33502;47.182;27.506;2023-03-03T02:56:39;79.85;;;37.67;;
47737;SDS011;33502;47.182;27.506;2023-03-03T02:59:05;70.85;;;36.38;;
47737;SDS011;33502;47.182;27.506;2023-03-03T03:01:36;75.57;;;37.05;;
47737;SDS011;33502;47.182;27.506;2023-03-03T03:06:34;73.80;;;34.17;;
47737;SDS011;33502;47.182;27.506;2023-03-03T03:09:00;85.40;;;35.25;;
47737;SDS011;33502;47.182;27.506;2023-03-03T03:11:26;77.38;;;34.47;;
47737;SDS011;33502;47.182;27.506;2023-03-03T03:13:52;74.00;;;34.75;;
47737;SDS011;33502;47.182;27.506;2023-03-03T03:16:19;79.85;;;35.13;;
47737;SDS011;33502;47.182;27.506;2023-03-03T03:18:45;72.82;;;34.60;;
47737;SDS011;33502;47.182;27.506;2023-03-03T03:21:11;76.88;;;35.30;;
47737;SDS011;33502;47.182;27.506;2023-03-03T03:23:39;81.70;;;37.40;;
47737;SDS011;33502;47.182;27.506;2023-03-03T03:26:05;72.20;;;33.85;;
47737;SDS011;33502;47.182;27.506;2023-03-03T03:28:33;79.03;;;34.58;;
47737;SDS011;33502;47.182;27.506;2023-03-03T03:31:00;76.68;;;34.70;;
47737;SDS011;33502;47.182;27.506;2023-03-03T03:33:26;81.90;;;38.08;;
47737;SDS011;33502;47.182;27.506;2023-03-03T03:35:53;73.97;;;34.97;;
47737;SDS011;33502;47.182;27.506;2023-03-03T03:38:20;76.85;;;36.33;;
47737;SDS011;33502;47.182;27.506;2023-03-03T03:40:47;78.97;;;35.55;;
47737;SDS011;33502;47.182;27.506;2023-03-03T03:43:13;87.22;;;38.40;;
47737;SDS011;33502;47.182;27.506;2023-03-03T03:45:43;98.40;;;44.95;;
47737;SDS011;33502;47.182;27.506;2023-03-03T03:48:10;88.25;;;37.92;;
47737;SDS011;33502;47.182;27.506;2023-03-03T03:50:36;90.53;;;39.95;;
47737;SDS011;33502;47.182;27.506;2023-03-03T03:53:04;79.43;;;36.20;;
47737;SDS011;33502;47.182;27.506;2023-03-03T03:55:30;78.28;;;38.10;;
47737;SDS011;33502;47.182;27.506;2023-03-03T03:57:56;90.05;;;40.75;;
47737;SDS011;33502;47.182;27.506;2023-03-03T04:00:22;79.93;;;36.42;;
47737;SDS011;33502;47.182;27.506;2023-03-03T04:05:20;85.00;;;37.85;;
47737;SDS011;33502;47.182;27.506;2023-03-03T04:07:47;77.50;;;35.05;;
47737;SDS011;33502;47.182;27.506;2023-03-03T04:10:14;80.97;;;36.53;;
47737;SDS011;33502;47.182;27.506;2023-03-03T04:12:41;91.15;;;41.58;;
47737;SDS011;33502;47.182;27.506;2023-03-03T04:15:11;85.47;;;37.97;;
47737;SDS011;33502;47.182;27.506;2023-03-03T04:17:38;74.93;;;38.78;;
47737;SDS011;33502;47.182;27.506;2023-03-03T04:20:06;90.15;;;36.97;;
47737;SDS011;33502;47.182;27.506;2023-03-03T04:22:32;80.13;;;39.05;;
47737;SDS011;33502;47.182;27.506;2023-03-03T04:25:04;78.22;;;35.90;;
47737;SDS011;33502;47.182;27.506;2023-03-03T04:27:35;75.93;;;37.15;;
47737;SDS011;33502;47.182;27.506;2023-03-03T04:30:03;78.40;;;36.80;;
47737;SDS011;33502;47.182;27.506;2023-03-03T04:32:30;69.00;;;36.88;;
47737;SDS011;33502;47.182;27.506;2023-03-03T04:34:58;81.63;;;35.70;;
47737;SDS011;33502;47.182;27.506;2023-03-03T04:37:25;81.03;;;37.63;;
47737;SDS011;33502;47.182;27.506;2023-03-03T04:39:50;78.10;;;36.65;;
47737;SDS011;33502;47.182;27.506;2023-03-03T04:42:16;85.63;;;36.38;;
47737;SDS011;33502;47.182;27.506;2023-03-03T04:44:42;81.13;;;34.63;;
47737;SDS011;33502;47.182;27.506;2023-03-03T04:47:09;75.63;;;38.33;;
47737;SDS011;33502;47.182;27.506;2023-03-03T04:49:36;75.25;;;36.88;;
47737;SDS011;33502;47.182;27.506;2023-03-03T04:52:03;75.30;;;35.95;;
47737;SDS011;33502;47.182;27.506;2023-03-03T04:54:29;87.80;;;39.83;;
47737;SDS011;33502;47.182;27.506;2023-03-03T04:56:55;77.65;;;39.55;;
47737;SDS011;33502;47.182;27.506;2023-03-03T04:59:21;92.85;;;40.05;;
47737;SDS011;33502;47.182;27.506;2023-03-03T05:01:47;73.93;;;36.83;;
47737;SDS011;33502;47.182;27.506;2023-03-03T05:04:15;77.30;;;37.17;;
47737;SDS011;33502;47.182;27.506;2023-03-03T05:06:41;83.35;;;38.92;;
47737;SDS011;33502;47.182;27.506;2023-03-03T05:09:07;81.70;;;38.08;;
47737;SDS011;33502;47.182;27.506;2023-03-03T05:11:34;80.63;;;36.25;;
47737;SDS011;33502;47.182;27.506;2023-03-03T05:14:00;79.70;;;36.95;;
47737;SDS011;33502;47.182;27.506;2023-03-03T05:16:27;76.72;;;35.30;;
47737;SDS011;33502;47.182;27.506;2023-03-03T05:18:53;79.38;;;37.83;;
47737;SDS011;33502;47.182;27.506;2023-03-03T05:21:19;76.15;;;38.15;;
47737;SDS011;33502;47.182;27.506;2023-03-03T05:23:45;82.57;;;35.60;;
47737;SDS011;33502;47.182;27.506;2023-03-03T05:26:11;65.65;;;30.38;;
47737;SDS011;33502;47.182;27.506;2023-03-03T05:28:36;64.97;;;33.70;;
47737;SDS011;33502;47.182;27.506;2023-03-03T05:31:02;61.70;;;30.05;;
47737;SDS011;33502;47.182;27.506;2023-03-03T05:33:28;56.22;;;28.73;;
47737;SDS011;33502;47.182;27.506;2023-03-03T05:35:55;55.03;;;27.55;;
47737;SDS011;33502;47.182;27.506;2023-03-03T05:38:22;55.05;;;25.98;;
47737;SDS011;33502;47.182;27.506;2023-03-03T05:40:49;56.45;;;27.70;;
47737;SDS011;33502;47.182;27.506;2023-03-03T05:43:15;50.85;;;27.27;;
47737;SDS011;33502;47.182;27.506;2023-03-03T05:45:41;48.55;;;26.65;;
47737;SDS011;33502;47.182;27.506;2023-03-03T05:48:06;52.70;;;26.33;;
47737;SDS011;33502;47.182;27.506;2023-03-03T05:50:35;50.15;;;27.60;;
47737;SDS011;33502;47.182;27.506;2023-03-03T05:53:01;53.30;;;29.10;;
47737;SDS011;33502;47.182;27.506;2023-03-03T05:55:27;56.22;;;27.23;;
47737;SDS011;33502;47.182;27.506;2023-03-03T05:57:53;52.90;;;27.98;;
47737;SDS011;33502;47.182;27.506;2023-03-03T06:00:19;55.63;;;27.83;;
47737;SDS011;33502;47.182;27.506;2023-03-03T06:02:46;54.40;;;30.10;;
47737;SDS011;33502;47.182;27.506;2023-03-03T06:05:11;51.03;;;29.77;;
47737;SDS011;33502;47.182;27.506;2023-03-03T06:07:37;61.15;;;30.13;;
47737;SDS011;33502;47.182;27.506;2023-03-03T06:10:04;50.78;;;27.50;;
47737;SDS011;33502;47.182;27.506;2023-03-03T06:12:34;52.70;;;26.92;;
47737;SDS011;33502;47.182;27.506;2023-03-03T06:15:00;50.90;;;27.33;;
47737;SDS011;33502;47.182;27.506;2023-03-03T06:17:25;47.50;;;26.58;;
47737;SDS011;33502;47.182;27.506;2023-03-03T06:19:51;56.80;;;28.05;;
47737;SDS011;33502;47.182;27.506;2023-03-03T06:22:17;46.95;;;24.70;;
47737;SDS011;33502;47.182;27.506;2023-03-03T06:24:43;49.40;;;26.42;;
47737;SDS011;33502;47.182;27.506;2023-03-03T06:27:09;43.47;;;24.00;;
47737;SDS011;33502;47.182;27.506;2023-03-03T06:29:35;42.53;;;24.60;;
47737;SDS011;33502;47.182;27.506;2023-03-03T06:32:00;44.95;;;26.30;;
47737;SDS011;33502;47.182;27.506;2023-03-03T06:34:26;43.90;;;25.50;;
47737;SDS011;33502;47.182;27.506;2023-03-03T06:36:52;45.70;;;24.58;;
47737;SDS011;33502;47.182;27.506;2023-03-03T06:39:18;43.10;;;24.75;;
47737;SDS011;33502;47.182;27.506;2023-03-03T06:41:44;42.80;;;25.20;;
47737;SDS011;33502;47.182;27.506;2023-03-03T06:44:10;45.38;;;26.77;;
47737;SDS011;33502;47.182;27.506;2023-03-03T06:46:36;44.92;;;25.50;;
47737;SDS011;33502;47.182;27.506;2023-03-03T06:49:02;40.53;;;24.02;;
47737;SDS011;33502;47.182;27.506;2023-03-03T06:51:35;39.95;;;24.45;;
47737;SDS011;33502;47.182;27.506;2023-03-03T06:54:15;40.08;;;22.25;;
47737;SDS011;33502;47.182;27.506;2023-03-03T06:56:46;38.13;;;22.15;;
47737;SDS011;33502;47.182;27.506;2023-03-03T06:59:14;39.10;;;23.10;;
47737;SDS011;33502;47.182;27.506;2023-03-03T07:01:43;43.00;;;24.67;;
47737;SDS011;33502;47.182;27.506;2023-03-03T07:04:32;38.45;;;23.13;;
47737;SDS011;33502;47.182;27.506;2023-03-03T07:06:59;41.45;;;23.30;;
47737;SDS011;33502;47.182;27.506;2023-03-03T07:09:35;41.33;;;24.65;;
47737;SDS011;33502;47.182;27.506;2023-03-03T07:12:04;45.25;;;27.23;;
47737;SDS011;33502;47.182;27.506;2023-03-03T07:14:38;46.35;;;25.92;;
47737;SDS011;33502;47.182;27.506;2023-03-03T07:17:21;40.47;;;23.10;;
47737;SDS011;33502;47.182;27.506;2023-03-03T07:19:49;40.10;;;23.20;;
47737;SDS011;33502;47.182;27.506;2023-03-03T07:22:16;38.20;;;21.27;;
47737;SDS011;33502;47.182;27.506;2023-03-03T07:24:50;33.85;;;21.48;;
47737;SDS011;33502;47.182;27.506;2023-03-03T07:29:47;33.75;;;21.15;;
47737;SDS011;33502;47.182;27.506;2023-03-03T07:35:07;40.13;;;23.52;;
47737;SDS011;33502;47.182;27.506;2023-03-03T07:37:46;33.85;;;19.90;;
47737;SDS011;33502;47.182;27.506;2023-03-03T07:43:14;27.33;;;17.92;;
47737;SDS011;33502;47.182;27.506;2023-03-03T07:45:47;28.73;;;17.23;;
47737;SDS011;33502;47.182;27.506;2023-03-03T07:48:29;29.67;;;17.65;;
47737;SDS011;33502;47.182;27.506;2023-03-03T07:51:02;34.22;;;18.50;;
47737;SDS011;33502;47.182;27.506;2023-03-03T07:53:32;31.23;;;19.48;;
47737;SDS011;33502;47.182;27.506;2023-03-03T07:56:00;36.75;;;21.52;;
47737;SDS011;33502;47.182;27.506;2023-03-03T07:58:30;36.67;;;21.20;;
47737;SDS011;33502;47.182;27.506;2023-03-03T08:03:53;39.75;;;22.73;;
47737;SDS011;33502;47.182;27.506;2023-03-03T08:07:02;43.53;;;26.25;;
47737;SDS011;33502;47.182;27.506;2023-03-03T08:11:42;35.58;;;24.25;;
47737;SDS011;33502;47.182;27.506;2023-03-03T08:14:12;42.70;;;25.45;;
47737;SDS011;33502;47.182;27.506;2023-03-03T08:16:40;42.05;;;25.17;;
47737;SDS011;33502;47.182;27.506;2023-03-03T08:19:06;40.80;;;23.38;;
47737;SDS011;33502;47.182;27.506;2023-03-03T08:21:34;30.48;;;20.60;;
47737;SDS011;33502;47.182;27.506;2023-03-03T08:24:00;34.53;;;21.10;;
47737;SDS011;33502;47.182;27.506;2023-03-03T08:26:26;26.67;;;20.23;;
47737;SDS011;33502;47.182;27.506;2023-03-03T08:28:52;36.03;;;20.85;;
47737;SDS011;33502;47.182;27.506;2023-03-03T08:31:20;29.48;;;17.38;;
47737;SDS011;33502;47.182;27.506;2023-03-03T08:33:46;30.92;;;19.98;;
47737;SDS011;33502;47.182;27.506;2023-03-03T08:36:12;27.70;;;17.50;;
47737;SDS011;33502;47.182;27.506;2023-03-03T08:38:38;33.15;;;16.90;;
47737;SDS011;33502;47.182;27.506;2023-03-03T08:41:04;31.73;;;17.02;;
47737;SDS011;33502;47.182;27.506;2023-03-03T08:43:31;29.80;;;17.10;;
47737;SDS011;33502;47.182;27.506;2023-03-03T08:45:58;25.85;;;14.55;;
47737;SDS011;33502;47.182;27.506;2023-03-03T08:48:26;22.40;;;12.18;;
47737;SDS011;33502;47.182;27.506;2023-03-03T08:50:53;23.85;;;14.82;;
47737;SDS011;33502;47.182;27.506;2023-03-03T08:53:19;30.02;;;18.73;;
47737;SDS011;33502;47.182;27.506;2023-03-03T08:55:46;25.60;;;13.70;;
47737;SDS011;33502;47.182;27.506;2023-03-03T08:58:12;24.95;;;14.75;;
47737;SDS011;33502;47.182;27.506;2023-03-03T09:00:39;22.65;;;16.35;;
47737;SDS011;33502;47.182;27.506;2023-03-03T09:03:06;26.30;;;17.33;;
47737;SDS011;33502;47.182;27.506;2023-03-03T09:05:32;18.98;;;13.55;;
47737;SDS011;33502;47.182;27.506;2023-03-03T09:08:00;19.75;;;13.32;;
47737;SDS011;33502;47.182;27.506;2023-03-03T09:10:27;20.52;;;12.90;;
47737;SDS011;33502;47.182;27.506;2023-03-03T09:12:59;21.38;;;11.82;;
47737;SDS011;33502;47.182;27.506;2023-03-03T09:15:34;17.52;;;11.60;;
47737;SDS011;33502;47.182;27.506;2023-03-03T09:18:20;23.15;;;11.98;;
47737;SDS011;33502;47.182;27.506;2023-03-03T09:20:50;15.38;;;10.82;;
47737;SDS011;33502;47.182;27.506;2023-03-03T09:27:11;24.17;;;12.15;;
47737;SDS011;33502;47.182;27.506;2023-03-03T09:31:44;16.95;;;10.35;;
47737;SDS011;33502;47.182;27.506;2023-03-03T09:36:44;20.27;;;10.63;;
47737;SDS011;33502;47.182;27.506;2023-03-03T09:39:15;16.88;;;9.30;;
47737;SDS011;33502;47.182;27.506;2023-03-03T09:41:57;14.93;;;8.98;;
47737;SDS011;33502;47.182;27.506;2023-03-03T09:44:52;18.75;;;9.90;;
47737;SDS011;33502;47.182;27.506;2023-03-03T09:53:49;20.75;;;11.25;;
47737;SDS011;33502;47.182;27.506;2023-03-03T10:13:45;19.85;;;10.88;;
47737;SDS011;33502;47.182;27.506;2023-03-03T10:16:48;19.52;;;10.65;;
47737;SDS011;33502;47.182;27.506;2023-03-03T10:19:25;19.45;;;11.80;;
47737;SDS011;33502;47.182;27.506;2023-03-03T10:42:03;22.48;;;12.75;;
47737;SDS011;33502;47.182;27.506;2023-03-03T10:53:13;26.63;;;13.70;;
47737;SDS011;33502;47.182;27.506;2023-03-03T11:18:05;25.58;;;13.57;;
47737;SDS011;33502;47.182;27.506;2023-03-03T11:21:00;24.77;;;14.68;;
47737;SDS011;33502;47.182;27.506;2023-03-03T11:36:55;20.30;;;11.52;;
47737;SDS011;33502;47.182;27.506;2023-03-03T11:39:28;18.85;;;11.10;;
47737;SDS011;33502;47.182;27.506;2023-03-03T11:44:36;23.60;;;12.45;;
47737;SDS011;33502;47.182;27.506;2023-03-03T11:57:44;19.92;;;10.90;;
47737;SDS011;33502;47.182;27.506;2023-03-03T12:00:21;24.02;;;10.65;;
47737;SDS011;33502;47.182;27.506;2023-03-03T12:03:16;19.23;;;10.93;;
47737;SDS011;33502;47.182;27.506;2023-03-03T12:20:08;15.40;;;9.95;;
47737;SDS011;33502;47.182;27.506;2023-03-03T12:26:00;21.60;;;10.50;;
47737;SDS011;33502;47.182;27.506;2023-03-03T12:28:40;19.55;;;11.40;;
47737;SDS011;33502;47.182;27.506;2023-03-03T12:44:47;20.02;;;11.43;;
47737;SDS011;33502;47.182;27.506;2023-03-03T12:47:28;18.27;;;10.57;;
47737;SDS011;33502;47.182;27.506;2023-03-03T12:52:44;20.98;;;12.15;;
47737;SDS011;33502;47.182;27.506;2023-03-03T13:06:03;18.23;;;11.38;;
47737;SDS011;33502;47.182;27.506;2023-03-03T13:16:14;19.00;;;12.00;;
47737;SDS011;33502;47.182;27.506;2023-03-03T13:21:33;15.75;;;10.93;;
47737;SDS011;33502;47.182;27.506;2023-03-03T13:24:20;20.15;;;12.48;;
47737;SDS011;33502;47.182;27.506;2023-03-03T13:33:01;20.88;;;12.18;;
47737;SDS011;33502;47.182;27.506;2023-03-03T13:38:23;16.33;;;10.90;;
47737;SDS011;33502;47.182;27.506;2023-03-03T13:41:05;17.98;;;11.45;;
47737;SDS011;33502;47.182;27.506;2023-03-03T13:43:42;18.33;;;12.25;;
47737;SDS011;33502;47.182;27.506;2023-03-03T13:46:15;20.38;;;11.57;;
47737;SDS011;33502;47.182;27.506;2023-03-03T13:54:33;22.85;;;10.63;;
47737;SDS011;33502;47.182;27.506;2023-03-03T13:57:23;20.15;;;10.65;;
47737;SDS011;33502;47.182;27.506;2023-03-03T14:08:06;27.33;;;12.48;;
47737;SDS011;33502;47.182;27.506;2023-03-03T14:10:40;20.98;;;12.18;;
47737;SDS011;33502;47.182;27.506;2023-03-03T14:14:17;16.98;;;11.48;;
47737;SDS011;33502;47.182;27.506;2023-03-03T14:19:11;16.27;;;10.60;;
47737;SDS011;33502;47.182;27.506;2023-03-03T14:21:48;18.33;;;11.27;;
47737;SDS011;33502;47.182;27.506;2023-03-03T14:24:21;21.13;;;12.70;;
47737;SDS011;33502;47.182;27.506;2023-03-03T14:26:57;22.25;;;12.43;;
47737;SDS011;33502;47.182;27.506;2023-03-03T14:31:50;21.55;;;12.93;;
47737;SDS011;33502;47.182;27.506;2023-03-03T14:36:49;22.10;;;12.02;;
47737;SDS011;33502;47.182;27.506;2023-03-03T14:39:38;23.05;;;12.32;;
47737;SDS011;33502;47.182;27.506;2023-03-03T14:42:12;20.50;;;10.98;;
47737;SDS011;33502;47.182;27.506;2023-03-03T14:44:54;19.52;;;12.32;;
47737;SDS011;33502;47.182;27.506;2023-03-03T14:47:23;19.60;;;12.63;;
47737;SDS011;33502;47.182;27.506;2023-03-03T14:49:52;19.30;;;11.77;;
47737;SDS011;33502;47.182;27.506;2023-03-03T14:52:29;18.17;;;11.52;;
47737;SDS011;33502;47.182;27.506;2023-03-03T14:54:58;23.10;;;11.95;;
47737;SDS011;33502;47.182;27.506;2023-03-03T15:10:30;23.27;;;12.82;;
47737;SDS011;33502;47.182;27.506;2023-03-03T15:12:57;26.83;;;14.27;;
47737;SDS011;33502;47.182;27.506;2023-03-03T15:15:23;21.70;;;12.50;;
47737;SDS011;33502;47.182;27.506;2023-03-03T15:23:31;22.35;;;12.40;;
47737;SDS011;33502;47.182;27.506;2023-03-03T15:28:51;25.98;;;13.27;;
47737;SDS011;33502;47.182;27.506;2023-03-03T15:31:27;24.63;;;15.52;;
47737;SDS011;33502;47.182;27.506;2023-03-03T15:36:46;27.52;;;14.98;;
47737;SDS011;33502;47.182;27.506;2023-03-03T15:41:56;52.95;;;32.97;;
47737;SDS011;33502;47.182;27.506;2023-03-03T15:56:08;25.70;;;11.30;;
47737;SDS011;33502;47.182;27.506;2023-03-03T16:01:22;21.83;;;11.93;;
47737;SDS011;33502;47.182;27.506;2023-03-03T16:20:26;21.00;;;12.27;;
47737;SDS011;33502;47.182;27.506;2023-03-03T16:34:05;21.88;;;12.95;;
47737;SDS011;33502;47.182;27.506;2023-03-03T16:49:38;25.55;;;12.90;;
47737;SDS011;33502;47.182;27.506;2023-03-03T16:52:11;33.72;;;13.82;;
47737;SDS011;33502;47.182;27.506;2023-03-03T16:57:23;23.25;;;15.05;;
47737;SDS011;33502;47.182;27.506;2023-03-03T17:00:28;30.02;;;15.02;;
47737;SDS011;33502;47.182;27.506;2023-03-03T17:06:20;27.48;;;14.73;;
47737;SDS011;33502;47.182;27.506;2023-03-03T17:09:16;27.80;;;14.02;;
47737;SDS011;33502;47.182;27.506;2023-03-03T17:12:12;26.70;;;15.25;;
47737;SDS011;33502;47.182;27.506;2023-03-03T17:17:46;26.02;;;14.48;;
47737;SDS011;33502;47.182;27.506;2023-03-03T17:26:03;26.40;;;15.63;;
47737;SDS011;33502;47.182;27.506;2023-03-03T17:34:03;29.67;;;17.65;;
47737;SDS011;33502;47.182;27.506;2023-03-03T17:36:49;32.35;;;17.35;;
47737;SDS011;33502;47.182;27.506;2023-03-03T17:42:14;38.95;;;20.85;;
47737;SDS011;33502;47.182;27.506;2023-03-03T17:44:47;42.05;;;20.55;;
47737;SDS011;33502;47.182;27.506;2023-03-03T17:58:32;50.22;;;25.00;;
47737;SDS011;33502;47.182;27.506;2023-03-03T18:01:18;47.70;;;25.70;;
47737;SDS011;33502;47.182;27.506;2023-03-03T18:06:45;48.10;;;25.63;;
47737;SDS011;33502;47.182;27.506;2023-03-03T18:22:47;52.15;;;27.17;;
47737;SDS011;33502;47.182;27.506;2023-03-03T18:30:30;55.45;;;26.00;;
47737;SDS011;33502;47.182;27.506;2023-03-03T18:33:26;51.80;;;26.42;;
47737;SDS011;33502;47.182;27.506;2023-03-03T18:36:35;50.78;;;27.25;;
47737;SDS011;33502;47.182;27.506;2023-03-03T18:38:57;55.20;;;26.73;;
47737;SDS011;33502;47.182;27.506;2023-03-03T18:41:28;54.00;;;28.48;;
47737;SDS011;33502;47.182;27.506;2023-03-03T18:43:57;54.40;;;27.45;;
47737;SDS011;33502;47.182;27.506;2023-03-03T18:48:51;51.03;;;25.52;;
47737;SDS011;33502;47.182;27.506;2023-03-03T18:59:08;48.75;;;23.88;;
47737;SDS011;33502;47.182;27.506;2023-03-03T19:01:41;52.38;;;25.15;;
47737;SDS011;33502;47.182;27.506;2023-03-03T19:09:09;49.28;;;25.00;;
47737;SDS011;33502;47.182;27.506;2023-03-03T19:11:48;51.83;;;25.10;;
47737;SDS011;33502;47.182;27.506;2023-03-03T19:16:50;49.85;;;22.63;;
47737;SDS011;33502;47.182;27.506;2023-03-03T19:19:29;54.38;;;23.42;;
47737;SDS011;33502;47.182;27.506;2023-03-03T19:22:20;54.72;;;26.83;;
47737;SDS011;33502;47.182;27.506;2023-03-03T19:36:27;54.95;;;26.17;;
47737;SDS011;33502;47.182;27.506;2023-03-03T19:50:44;55.33;;;24.58;;
47737;SDS011;33502;47.182;27.506;2023-03-03T19:53:04;47.03;;;20.58;;
47737;SDS011;33502;47.182;27.506;2023-03-03T19:58:28;47.30;;;22.88;;
47737;SDS011;33502;47.182;27.506;2023-03-03T20:00:59;48.00;;;22.42;;
47737;SDS011;33502;47.182;27.506;2023-03-03T20:25:28;47.65;;;23.15;;
47737;SDS011;33502;47.182;27.506;2023-03-03T20:28:08;52.03;;;23.30;;
47737;SDS011;33502;47.182;27.506;2023-03-03T20:36:49;48.83;;;22.08;;
47737;SDS011;33502;47.182;27.506;2023-03-03T20:50:34;47.47;;;21.08;;
47737;SDS011;33502;47.182;27.506;2023-03-03T20:56:00;51.88;;;21.90;;
47737;SDS011;33502;47.182;27.506;2023-03-03T20:58:56;44.72;;;20.52;;
47737;SDS011;33502;47.182;27.506;2023-03-03T21:04:15;43.10;;;19.77;;
47737;SDS011;33502;47.182;27.506;2023-03-03T21:06:53;41.42;;;19.58;;
47737;SDS011;33502;47.182;27.506;2023-03-03T21:09:24;42.97;;;19.63;;
47737;SDS011;33502;47.182;27.506;2023-03-03T21:11:51;42.25;;;20.35;;
47737;SDS011;33502;47.182;27.506;2023-03-03T21:16:45;40.60;;;19.27;;
47737;SDS011;33502;47.182;27.506;2023-03-03T21:19:12;40.45;;;19.60;;
47737;SDS011;33502;47.182;27.506;2023-03-03T21:21:48;49.15;;;19.88;;
47737;SDS011;33502;47.182;27.506;2023-03-03T21:24:14;46.08;;;20.38;;
47737;SDS011;33502;47.182;27.506;2023-03-03T21:26:48;41.08;;;18.77;;
47737;SDS011;33502;47.182;27.506;2023-03-03T21:31:51;43.50;;;19.80;;
47737;SDS011;33502;47.182;27.506;2023-03-03T21:34:38;49.13;;;20.25;;
47737;SDS011;33502;47.182;27.506;2023-03-03T21:37:08;44.15;;;19.52;;
47737;SDS011;33502;47.182;27.506;2023-03-03T21:39:39;44.07;;;19.17;;
47737;SDS011;33502;47.182;27.506;2023-03-03T21:42:09;44.63;;;19.95;;
47737;SDS011;33502;47.182;27.506;2023-03-03T21:47:04;45.90;;;19.70;;
47737;SDS011;33502;47.182;27.506;2023-03-03T21:49:31;43.55;;;20.45;;
47737;SDS011;33502;47.182;27.506;2023-03-03T21:51:58;43.03;;;19.02;;
47737;SDS011;33502;47.182;27.506;2023-03-03T21:54:24;49.58;;;21.60;;
47737;SDS011;33502;47.182;27.506;2023-03-03T21:56:50;43.53;;;20.00;;
47737;SDS011;33502;47.182;27.506;2023-03-03T21:59:16;47.10;;;21.67;;
47737;SDS011;33502;47.182;27.506;2023-03-03T22:01:43;43.38;;;19.17;;
47737;SDS011;33502;47.182;27.506;2023-03-03T22:04:09;44.28;;;19.67;;
47737;SDS011;33502;47.182;27.506;2023-03-03T22:06:34;42.40;;;19.73;;
47737;SDS011;33502;47.182;27.506;2023-03-03T22:09:04;47.17;;;23.17;;
47737;SDS011;33502;47.182;27.506;2023-03-03T22:11:31;43.70;;;19.95;;
47737;SDS011;33502;47.182;27.506;2023-03-03T22:13:57;44.08;;;20.35;;
47737;SDS011;33502;47.182;27.506;2023-03-03T22:16:22;43.60;;;19.65;;
47737;SDS011;33502;47.182;27.506;2023-03-03T22:18:48;43.80;;;20.27;;
47737;SDS011;33502;47.182;27.506;2023-03-03T22:21:14;50.70;;;21.38;;
47737;SDS011;33502;47.182;27.506;2023-03-03T22:23:40;49.15;;;22.67;;
47737;SDS011;33502;47.182;27.506;2023-03-03T22:26:06;45.13;;;20.60;;